createdAt,value
2022-11-19T00:01:46.551Z,14.77
2022-11-19T00:06:51.215Z,14.23
2022-11-19T00:12:11.810Z,13.33
2022-11-19T00:17:16.283Z,13.50
2022-11-19T00:22:19.329Z,13.47
2022-11-19T00:27:22.472Z,13.73
2022-11-19T00:32:27.117Z,13.60
2022-11-19T00:37:30.272Z,13.30
2022-11-19T00:42:33.560Z,14.23
2022-11-19T00:47:37.956Z,14.63
2022-11-19T00:52:41.166Z,15.07
2022-11-19T00:57:44.226Z,14.93
2022-11-19T01:02:48.629Z,14.37
2022-11-19T01:07:51.631Z,14.17
2022-11-19T01:13:12.195Z,13.50
2022-11-19T01:18:17.151Z,13.93
2022-11-19T01:23:20.100Z,14.10
2022-11-19T01:28:23.332Z,13.20
2022-11-19T01:33:28.013Z,13.23
2022-11-19T01:38:32.061Z,14.10
2022-11-19T01:43:44.245Z,12.13
2022-11-19T01:48:53.058Z,13.10
2022-11-19T01:54:00.339Z,12.37
2022-11-19T01:59:06.544Z,12.37
2022-11-19T02:04:13.263Z,11.73
2022-11-19T02:09:16.759Z,11.43
2022-11-19T02:14:36.652Z,12.57
2022-11-19T02:20:13.940Z,13.57
2022-11-19T02:25:34.628Z,13.60
2022-11-19T02:30:41.656Z,13.13
2022-11-19T02:35:51.418Z,13.40
2022-11-19T02:40:59.483Z,14.33
2022-11-19T02:46:08.718Z,14.97
2022-11-19T02:51:15.073Z,14.27
2022-11-19T02:56:51.429Z,16.03
2022-11-19T03:02:13.697Z,14.87
2022-11-19T03:07:20.388Z,14.87
2022-11-19T03:12:29.766Z,14.60
2022-11-19T03:17:44.975Z,13.77
2022-11-19T03:22:53.366Z,14.60
2022-11-19T03:28:02.528Z,14.87
2022-11-19T03:33:11.902Z,15.00
2022-11-19T03:38:21.145Z,14.40
2022-11-19T03:43:28.358Z,14.57
2022-11-19T03:48:33.294Z,15.10
2022-11-19T03:53:36.796Z,15.33
2022-11-19T03:58:41.837Z,15.53
2022-11-19T04:04:06.252Z,15.00
2022-11-19T04:09:09.552Z,16.07
2022-11-19T04:14:12.759Z,15.50
2022-11-19T04:19:18.469Z,16.80
2022-11-19T04:24:21.660Z,16.47
2022-11-19T04:29:24.751Z,17.70
2022-11-19T04:34:29.209Z,18.17
2022-11-19T04:39:32.265Z,17.93
2022-11-19T04:44:35.297Z,18.50
2022-11-19T04:49:39.855Z,18.23
2022-11-19T04:54:43.260Z,18.93
2022-11-19T04:59:46.436Z,17.20
2022-11-19T05:04:51.056Z,18.47
2022-11-19T05:09:54.146Z,19.37
2022-11-19T05:14:57.398Z,19.23
2022-11-19T05:20:03.322Z,17.83
2022-11-19T05:25:07.066Z,19.27
2022-11-19T05:30:11.538Z,17.83
2022-11-19T05:35:16.256Z,18.83
2022-11-19T05:40:20.547Z,18.60
2022-11-19T05:45:23.633Z,18.20
2022-11-19T05:50:28.583Z,18.50
2022-11-19T05:55:33.380Z,18.03
2022-11-19T06:00:36.487Z,17.43
2022-11-19T06:05:41.007Z,19.40
2022-11-19T06:10:44.132Z,19.23
2022-11-19T06:15:47.219Z,17.43
2022-11-19T06:20:51.777Z,18.60
2022-11-19T06:25:55.936Z,18.63
2022-11-19T06:30:58.920Z,19.13
2022-11-19T06:36:03.680Z,18.90
2022-11-19T06:41:07.542Z,19.50
2022-11-19T06:46:11.171Z,18.77
2022-11-19T06:51:15.990Z,18.30
2022-11-19T06:56:19.475Z,18.97
2022-11-19T07:01:22.697Z,18.90
2022-11-19T07:06:27.109Z,20.03
2022-11-19T07:11:31.129Z,19.00
2022-11-19T07:16:35.280Z,19.17
2022-11-19T07:21:39.922Z,19.67
2022-11-19T07:26:43.021Z,18.57
2022-11-19T07:31:50.468Z,19.37
2022-11-19T07:36:55.590Z,20.00
2022-11-19T07:42:16.644Z,18.10
2022-11-19T07:47:22.075Z,19.13
2022-11-19T07:52:26.738Z,19.77
2022-11-19T07:57:30.474Z,17.27
2022-11-19T08:02:33.830Z,17.73
2022-11-19T08:07:39.763Z,17.83
2022-11-19T08:13:02.901Z,18.70
2022-11-19T08:18:16.141Z,19.37
2022-11-19T08:23:20.488Z,18.40
2022-11-19T08:28:23.532Z,17.40
2022-11-19T08:33:29.322Z,17.10
2022-11-19T08:38:38.420Z,17.87
2022-11-19T08:43:42.507Z,17.70
2022-11-19T08:48:45.901Z,17.27
2022-11-19T08:53:53.013Z,17.40
2022-11-19T08:59:01.281Z,16.57
2022-11-19T09:04:06.291Z,16.80
2022-11-19T09:09:11.072Z,16.90
2022-11-19T09:14:14.225Z,17.30
2022-11-19T09:19:17.542Z,17.07
2022-11-19T09:24:22.511Z,16.97
2022-11-19T09:29:26.043Z,17.23
2022-11-19T09:34:29.133Z,15.87
2022-11-19T09:39:33.559Z,16.17
2022-11-19T09:44:59.494Z,16.00
2022-11-19T09:50:07.998Z,14.80
2022-11-19T09:55:18.091Z,15.20
2022-11-19T10:00:24.218Z,16.27
2022-11-19T10:05:38.264Z,15.20
2022-11-19T10:10:49.394Z,15.37
2022-11-19T10:16:04.165Z,16.43
2022-11-19T10:21:12.653Z,14.00
2022-11-19T10:44:37.503Z,14.30
2022-11-19T10:49:42.877Z,15.00
2022-11-19T10:54:47.938Z,15.30
2022-11-19T10:59:54.637Z,15.60
2022-11-19T11:05:04.112Z,15.17
2022-11-19T11:10:27.430Z,14.97
2022-11-19T11:15:31.995Z,14.57
2022-11-19T11:20:39.006Z,14.30
2022-11-19T11:25:51.777Z,14.80
2022-11-19T11:30:58.166Z,14.50
2022-11-19T11:36:04.653Z,14.27
2022-11-19T11:46:47.814Z,13.33
2022-11-19T11:52:00.993Z,14.00
2022-11-19T11:57:16.957Z,12.80
2022-11-19T12:02:27.112Z,13.43
2022-11-19T12:08:01.017Z,11.87
2022-11-19T12:13:44.983Z,11.43
2022-11-19T12:19:04.304Z,11.60
2022-11-19T12:24:23.903Z,11.47
2022-11-19T12:29:35.776Z,10.83
2022-11-19T12:35:04.739Z,10.33
2022-11-19T12:40:22.416Z,10.87
2022-11-19T12:45:36.863Z,10.83
2022-11-19T12:50:51.265Z,10.33
2022-11-19T12:56:06.422Z,9.87
2022-11-19T13:01:15.705Z,9.47
2022-11-19T13:06:26.052Z,9.90
2022-11-19T13:24:32.358Z,9.90
2022-11-19T13:29:42.313Z,9.47
2022-11-19T13:34:58.389Z,9.30
2022-11-19T13:40:08.273Z,10.00
2022-11-19T13:45:15.887Z,9.37
2022-11-19T13:50:27.012Z,9.93
2022-11-19T13:55:39.215Z,9.50
2022-11-19T14:00:57.469Z,8.60
2022-11-19T14:06:19.517Z,9.77
2022-11-19T14:11:37.507Z,8.57
2022-11-19T14:17:05.640Z,8.50
2022-11-19T14:22:50.258Z,9.63
2022-11-19T14:27:54.985Z,9.07
2022-11-19T14:33:01.178Z,8.30
2022-11-19T14:38:35.992Z,8.60
2022-11-19T14:44:11.244Z,8.20
2022-11-19T14:49:28.168Z,8.83
2022-11-19T14:54:34.897Z,7.90
2022-11-19T14:59:40.070Z,8.40
2022-11-19T15:04:51.369Z,8.27
2022-11-19T15:10:12.291Z,8.13
2022-11-19T15:15:42.823Z,8.77
2022-11-19T15:21:05.564Z,8.20
2022-11-19T15:26:20.161Z,8.07
2022-11-19T15:31:34.752Z,7.23
2022-11-19T15:36:41.235Z,7.00
2022-11-19T15:42:00.450Z,6.80
2022-11-19T15:47:12.408Z,6.43
2022-11-19T15:52:22.202Z,6.63
2022-11-19T15:57:28.555Z,6.97
2022-11-19T16:02:38.534Z,6.30
2022-11-19T16:07:41.880Z,6.50
2022-11-19T16:13:11.994Z,7.33
2022-11-19T16:18:17.764Z,6.60
2022-11-19T16:23:23.609Z,6.87
2022-11-19T16:28:30.503Z,7.00
2022-11-19T16:33:35.676Z,6.40
2022-11-19T16:38:41.652Z,7.20
2022-11-19T16:43:48.471Z,6.60
2022-11-19T16:48:59.057Z,6.43
2022-11-19T16:54:02.696Z,7.63
2022-11-19T16:59:06.588Z,6.00
2022-11-19T17:04:15.295Z,5.50
2022-11-19T17:09:35.720Z,5.67
2022-11-19T17:14:58.193Z,5.60
2022-11-19T17:20:02.664Z,5.87
2022-11-19T17:25:06.540Z,6.83
2022-11-19T17:30:12.221Z,6.43
2022-11-19T17:35:35.294Z,6.40
2022-11-19T17:40:39.309Z,6.17
2022-11-19T17:45:42.588Z,6.80
2022-11-19T17:50:47.275Z,7.23
2022-11-19T17:55:53.688Z,5.90
2022-11-19T18:00:57.301Z,6.80
2022-11-19T18:06:02.587Z,7.00
2022-11-19T18:11:05.903Z,6.40
2022-11-19T18:16:14.943Z,6.37
2022-11-19T18:21:20.706Z,6.70
2022-11-19T18:26:24.052Z,6.37
2022-11-19T18:31:28.994Z,5.77
2022-11-19T18:36:33.401Z,5.77
2022-11-19T18:41:36.573Z,5.67
2022-11-19T18:46:39.623Z,6.47
2022-11-19T18:51:44.443Z,5.73
2022-11-19T18:56:47.719Z,6.00
2022-11-19T19:01:52.239Z,6.23
2022-11-19T19:06:59.385Z,5.77
2022-11-19T19:12:21.467Z,5.97
2022-11-19T19:17:24.503Z,6.30
2022-11-19T19:22:29.934Z,6.43
2022-11-19T19:27:33.275Z,6.40
2022-11-19T19:32:36.216Z,6.63
2022-11-19T19:37:42.486Z,6.70
2022-11-19T19:42:45.635Z,6.77
2022-11-19T19:47:48.568Z,6.87
2022-11-19T19:52:52.976Z,7.70
2022-11-19T19:57:58.913Z,7.67
2022-11-19T20:03:01.894Z,7.27
2022-11-19T20:08:06.746Z,8.27
2022-11-19T20:13:28.488Z,7.33
2022-11-19T20:18:33.042Z,7.57
2022-11-19T20:23:38.122Z,7.40
2022-11-19T20:28:41.424Z,7.50
2022-11-19T20:33:45.598Z,7.90
2022-11-19T20:38:50.392Z,7.80
2022-11-19T20:44:11.099Z,8.30
2022-11-19T20:49:17.207Z,7.77
2022-11-19T20:54:22.552Z,7.83
2022-11-19T20:59:29.051Z,8.27
2022-11-19T21:04:36.433Z,7.87
2022-11-19T21:09:41.345Z,8.00
2022-11-19T21:14:44.266Z,7.60
2022-11-19T21:19:47.263Z,7.77
2022-11-19T21:24:51.794Z,8.23
2022-11-19T21:29:54.780Z,7.63
2022-11-19T21:35:00.558Z,8.77
2022-11-19T21:40:05.890Z,7.70
2022-11-19T21:45:09.906Z,7.60
2022-11-19T21:50:13.126Z,8.07
2022-11-19T21:55:17.581Z,8.23
2022-11-19T22:00:21.370Z,7.47
2022-11-19T22:05:25.057Z,8.17
2022-11-19T22:10:32.645Z,7.53
2022-11-19T22:15:35.662Z,8.40
2022-11-19T22:20:38.807Z,7.93
2022-11-19T22:25:43.113Z,7.80
2022-11-19T22:30:53.319Z,8.70
2022-11-19T22:35:58.553Z,8.90
2022-11-19T22:41:06.309Z,8.00
2022-11-19T22:46:11.224Z,6.90
2022-11-19T22:51:16.470Z,8.00
2022-11-19T22:56:23.062Z,8.13
2022-11-19T23:01:28.432Z,8.03
2022-11-19T23:06:31.389Z,8.70
2022-11-19T23:11:53.829Z,9.17
2022-11-19T23:16:57.049Z,8.83
2022-11-19T23:22:00.027Z,8.60
2022-11-19T23:27:04.538Z,8.77
2022-11-19T23:32:07.800Z,8.93
2022-11-19T23:37:11.060Z,8.80
2022-11-19T23:42:15.399Z,8.43
2022-11-19T23:47:18.661Z,9.00
2022-11-19T23:52:22.221Z,8.37
2022-11-19T23:57:28.704Z,8.70
